sensor_id;sensor_type;location;lat;lon;timestamp;P1;durP1;ratioP1;P2;durP2;ratioP2
18596;SDS011;9428;50.950;6.912;2023-04-30T00:00:55;47.13;;;30.17;;
18596;SDS011;9428;50.950;6.912;2023-04-30T00:03:42;44.25;;;28.17;;
18596;SDS011;9428;50.950;6.912;2023-04-30T00:06:29;38.70;;;24.75;;
18596;SDS011;9428;50.950;6.912;2023-04-30T00:09:18;38.40;;;24.05;;
18596;SDS011;9428;50.950;6.912;2023-04-30T00:12:05;33.35;;;22.08;;
18596;SDS011;9428;50.950;6.912;2023-04-30T00:14:52;37.25;;;23.65;;
18596;SDS011;9428;50.950;6.912;2023-04-30T00:17:40;37.90;;;23.27;;
18596;SDS011;9428;50.950;6.912;2023-04-30T00:20:28;32.47;;;19.73;;
18596;SDS011;9428;50.950;6.912;2023-04-30T00:23:15;30.73;;;18.42;;
18596;SDS011;9428;50.950;6.912;2023-04-30T00:26:04;30.25;;;19.05;;
18596;SDS011;9428;50.950;6.912;2023-04-30T00:28:51;24.88;;;18.17;;
18596;SDS011;9428;50.950;6.912;2023-04-30T00:31:38;22.65;;;16.20;;
18596;SDS011;9428;50.950;6.912;2023-04-30T00:34:26;24.60;;;16.88;;
18596;SDS011;9428;50.950;6.912;2023-04-30T00:37:13;26.05;;;18.10;;
18596;SDS011;9428;50.950;6.912;2023-04-30T00:40:00;26.17;;;16.40;;
18596;SDS011;9428;50.950;6.912;2023-04-30T00:42:49;31.65;;;20.80;;
18596;SDS011;9428;50.950;6.912;2023-04-30T00:45:36;30.92;;;21.60;;
18596;SDS011;9428;50.950;6.912;2023-04-30T00:48:24;28.75;;;20.00;;
18596;SDS011;9428;50.950;6.912;2023-04-30T00:51:12;23.35;;;16.17;;
18596;SDS011;9428;50.950;6.912;2023-04-30T00:53:59;21.73;;;15.80;;
18596;SDS011;9428;50.950;6.912;2023-04-30T00:56:47;21.25;;;15.82;;
18596;SDS011;9428;50.950;6.912;2023-04-30T00:59:36;21.48;;;14.82;;
18596;SDS011;9428;50.950;6.912;2023-04-30T01:02:24;21.52;;;15.43;;
18596;SDS011;9428;50.950;6.912;2023-04-30T01:05:11;25.48;;;16.35;;
18596;SDS011;9428;50.950;6.912;2023-04-30T01:07:59;24.50;;;16.88;;
18596;SDS011;9428;50.950;6.912;2023-04-30T01:10:47;28.05;;;19.10;;
18596;SDS011;9428;50.950;6.912;2023-04-30T01:13:40;29.08;;;19.23;;
18596;SDS011;9428;50.950;6.912;2023-04-30T01:16:40;25.55;;;17.98;;
18596;SDS011;9428;50.950;6.912;2023-04-30T01:19:35;28.45;;;18.48;;
18596;SDS011;9428;50.950;6.912;2023-04-30T01:22:30;25.23;;;18.13;;
18596;SDS011;9428;50.950;6.912;2023-04-30T01:28:39;26.90;;;18.80;;
18596;SDS011;9428;50.950;6.912;2023-04-30T01:31:29;23.92;;;17.23;;
18596;SDS011;9428;50.950;6.912;2023-04-30T01:34:16;27.23;;;19.15;;
18596;SDS011;9428;50.950;6.912;2023-04-30T01:37:10;27.27;;;18.90;;
18596;SDS011;9428;50.950;6.912;2023-04-30T01:40:06;29.35;;;18.13;;
18596;SDS011;9428;50.950;6.912;2023-04-30T01:43:04;27.30;;;19.42;;
18596;SDS011;9428;50.950;6.912;2023-04-30T01:46:00;24.58;;;17.70;;
18596;SDS011;9428;50.950;6.912;2023-04-30T01:49:07;29.98;;;20.30;;
18596;SDS011;9428;50.950;6.912;2023-04-30T01:52:02;30.90;;;19.83;;
18596;SDS011;9428;50.950;6.912;2023-04-30T01:54:59;30.60;;;18.73;;
18596;SDS011;9428;50.950;6.912;2023-04-30T01:57:50;30.70;;;20.30;;
18596;SDS011;9428;50.950;6.912;2023-04-30T02:00:42;28.05;;;19.73;;
18596;SDS011;9428;50.950;6.912;2023-04-30T02:03:31;27.25;;;18.23;;
18596;SDS011;9428;50.950;6.912;2023-04-30T02:06:18;27.75;;;19.58;;
18596;SDS011;9428;50.950;6.912;2023-04-30T02:09:05;25.88;;;19.25;;
18596;SDS011;9428;50.950;6.912;2023-04-30T02:11:54;29.52;;;18.50;;
18596;SDS011;9428;50.950;6.912;2023-04-30T02:14:42;26.92;;;17.98;;
18596;SDS011;9428;50.950;6.912;2023-04-30T02:17:30;25.02;;;17.98;;
18596;SDS011;9428;50.950;6.912;2023-04-30T02:20:18;26.25;;;19.02;;
18596;SDS011;9428;50.950;6.912;2023-04-30T02:23:06;27.10;;;18.85;;
18596;SDS011;9428;50.950;6.912;2023-04-30T02:25:54;22.20;;;16.77;;
18596;SDS011;9428;50.950;6.912;2023-04-30T02:28:41;25.70;;;17.73;;
18596;SDS011;9428;50.950;6.912;2023-04-30T02:31:28;27.75;;;16.95;;
18596;SDS011;9428;50.950;6.912;2023-04-30T02:34:15;25.48;;;17.05;;
18596;SDS011;9428;50.950;6.912;2023-04-30T02:37:04;24.25;;;16.58;;
18596;SDS011;9428;50.950;6.912;2023-04-30T02:39:52;25.50;;;17.20;;
18596;SDS011;9428;50.950;6.912;2023-04-30T02:42:40;23.88;;;15.80;;
18596;SDS011;9428;50.950;6.912;2023-04-30T02:45:27;30.58;;;17.27;;
18596;SDS011;9428;50.950;6.912;2023-04-30T02:48:14;23.35;;;16.77;;
18596;SDS011;9428;50.950;6.912;2023-04-30T02:51:01;25.60;;;16.63;;
18596;SDS011;9428;50.950;6.912;2023-04-30T02:53:50;29.83;;;17.60;;
18596;SDS011;9428;50.950;6.912;2023-04-30T02:56:37;20.88;;;15.52;;
18596;SDS011;9428;50.950;6.912;2023-04-30T02:59:25;26.15;;;16.45;;
18596;SDS011;9428;50.950;6.912;2023-04-30T03:02:12;23.02;;;16.42;;
18596;SDS011;9428;50.950;6.912;2023-04-30T03:04:59;22.00;;;15.38;;
18596;SDS011;9428;50.950;6.912;2023-04-30T03:07:47;22.77;;;15.02;;
18596;SDS011;9428;50.950;6.912;2023-04-30T03:10:35;24.13;;;15.10;;
18596;SDS011;9428;50.950;6.912;2023-04-30T03:13:23;20.88;;;14.25;;
18596;SDS011;9428;50.950;6.912;2023-04-30T03:16:11;21.33;;;14.75;;
18596;SDS011;9428;50.950;6.912;2023-04-30T03:18:58;22.90;;;16.17;;
18596;SDS011;9428;50.950;6.912;2023-04-30T03:21:45;21.85;;;15.32;;
18596;SDS011;9428;50.950;6.912;2023-04-30T03:24:32;24.63;;;15.48;;
18596;SDS011;9428;50.950;6.912;2023-04-30T03:27:21;21.50;;;14.68;;
18596;SDS011;9428;50.950;6.912;2023-04-30T03:30:08;21.92;;;15.02;;
18596;SDS011;9428;50.950;6.912;2023-04-30T03:32:55;21.90;;;15.05;;
18596;SDS011;9428;50.950;6.912;2023-04-30T03:35:43;25.98;;;14.93;;
18596;SDS011;9428;50.950;6.912;2023-04-30T03:38:30;21.77;;;14.52;;
18596;SDS011;9428;50.950;6.912;2023-04-30T03:41:17;20.02;;;14.63;;
18596;SDS011;9428;50.950;6.912;2023-04-30T03:44:06;21.70;;;14.80;;
18596;SDS011;9428;50.950;6.912;2023-04-30T03:46:59;19.73;;;14.13;;
18596;SDS011;9428;50.950;6.912;2023-04-30T03:49:47;23.23;;;14.67;;
18596;SDS011;9428;50.950;6.912;2023-04-30T03:52:39;19.50;;;13.77;;
18596;SDS011;9428;50.950;6.912;2023-04-30T03:55:26;20.70;;;13.83;;
18596;SDS011;9428;50.950;6.912;2023-04-30T03:58:13;23.70;;;13.80;;
18596;SDS011;9428;50.950;6.912;2023-04-30T04:01:02;19.60;;;13.15;;
18596;SDS011;9428;50.950;6.912;2023-04-30T04:03:50;22.38;;;13.45;;
18596;SDS011;9428;50.950;6.912;2023-04-30T04:06:37;18.93;;;13.20;;
18596;SDS011;9428;50.950;6.912;2023-04-30T04:09:25;20.40;;;12.70;;
18596;SDS011;9428;50.950;6.912;2023-04-30T04:12:12;18.33;;;12.83;;
18596;SDS011;9428;50.950;6.912;2023-04-30T04:14:59;20.50;;;12.30;;
18596;SDS011;9428;50.950;6.912;2023-04-30T04:17:48;19.87;;;12.37;;
18596;SDS011;9428;50.950;6.912;2023-04-30T04:20:35;20.30;;;13.18;;
18596;SDS011;9428;50.950;6.912;2023-04-30T04:23:23;20.23;;;12.68;;
18596;SDS011;9428;50.950;6.912;2023-04-30T04:26:10;21.08;;;12.82;;
18596;SDS011;9428;50.950;6.912;2023-04-30T04:28:57;15.33;;;11.80;;
18596;SDS011;9428;50.950;6.912;2023-04-30T04:31:44;19.83;;;13.18;;
18596;SDS011;9428;50.950;6.912;2023-04-30T04:34:34;22.38;;;13.25;;
18596;SDS011;9428;50.950;6.912;2023-04-30T04:37:22;16.38;;;11.70;;
18596;SDS011;9428;50.950;6.912;2023-04-30T04:40:10;17.95;;;12.93;;
18596;SDS011;9428;50.950;6.912;2023-04-30T04:43:00;19.00;;;12.97;;
18596;SDS011;9428;50.950;6.912;2023-04-30T04:45:47;19.23;;;12.82;;
18596;SDS011;9428;50.950;6.912;2023-04-30T04:48:34;21.37;;;13.07;;
18596;SDS011;9428;50.950;6.912;2023-04-30T04:51:23;27.75;;;17.63;;
18596;SDS011;9428;50.950;6.912;2023-04-30T04:54:11;25.50;;;16.13;;
18596;SDS011;9428;50.950;6.912;2023-04-30T04:56:58;23.83;;;15.68;;
18596;SDS011;9428;50.950;6.912;2023-04-30T04:59:45;22.33;;;14.13;;
18596;SDS011;9428;50.950;6.912;2023-04-30T05:02:32;21.85;;;15.57;;
18596;SDS011;9428;50.950;6.912;2023-04-30T05:05:20;19.35;;;13.55;;
18596;SDS011;9428;50.950;6.912;2023-04-30T05:08:08;23.77;;;16.05;;
18596;SDS011;9428;50.950;6.912;2023-04-30T05:10:55;22.67;;;15.48;;
18596;SDS011;9428;50.950;6.912;2023-04-30T05:13:42;25.70;;;15.23;;
18596;SDS011;9428;50.950;6.912;2023-04-30T05:16:30;21.67;;;14.07;;
18596;SDS011;9428;50.950;6.912;2023-04-30T05:19:17;15.80;;;12.18;;
18596;SDS011;9428;50.950;6.912;2023-04-30T05:22:04;16.25;;;11.38;;
18596;SDS011;9428;50.950;6.912;2023-04-30T05:24:53;18.98;;;11.98;;
18596;SDS011;9428;50.950;6.912;2023-04-30T05:27:40;16.60;;;12.05;;
18596;SDS011;9428;50.950;6.912;2023-04-30T05:30:27;15.85;;;12.10;;
18596;SDS011;9428;50.950;6.912;2023-04-30T05:33:14;17.75;;;12.75;;
18596;SDS011;9428;50.950;6.912;2023-04-30T05:36:02;19.27;;;12.27;;
18596;SDS011;9428;50.950;6.912;2023-04-30T05:38:49;17.52;;;12.68;;
18596;SDS011;9428;50.950;6.912;2023-04-30T05:41:38;18.20;;;13.25;;
18596;SDS011;9428;50.950;6.912;2023-04-30T05:44:25;20.08;;;13.32;;
18596;SDS011;9428;50.950;6.912;2023-04-30T05:47:14;20.13;;;13.90;;
18596;SDS011;9428;50.950;6.912;2023-04-30T05:50:02;19.75;;;13.57;;
18596;SDS011;9428;50.950;6.912;2023-04-30T05:52:49;17.98;;;13.10;;
18596;SDS011;9428;50.950;6.912;2023-04-30T05:55:37;19.98;;;13.43;;
18596;SDS011;9428;50.950;6.912;2023-04-30T05:58:25;18.65;;;13.57;;
18596;SDS011;9428;50.950;6.912;2023-04-30T06:01:12;20.85;;;13.63;;
18596;SDS011;9428;50.950;6.912;2023-04-30T06:04:00;18.83;;;13.23;;
18596;SDS011;9428;50.950;6.912;2023-04-30T06:06:49;21.45;;;14.02;;
18596;SDS011;9428;50.950;6.912;2023-04-30T06:09:36;20.17;;;13.60;;
18596;SDS011;9428;50.950;6.912;2023-04-30T06:12:23;18.90;;;14.00;;
18596;SDS011;9428;50.950;6.912;2023-04-30T06:15:12;21.00;;;13.18;;
18596;SDS011;9428;50.950;6.912;2023-04-30T06:17:59;22.42;;;14.10;;
18596;SDS011;9428;50.950;6.912;2023-04-30T06:20:47;19.35;;;13.20;;
18596;SDS011;9428;50.950;6.912;2023-04-30T06:23:34;20.20;;;14.57;;
18596;SDS011;9428;50.950;6.912;2023-04-30T06:26:22;19.17;;;13.70;;
18596;SDS011;9428;50.950;6.912;2023-04-30T06:29:12;18.13;;;13.55;;
18596;SDS011;9428;50.950;6.912;2023-04-30T06:32:01;20.48;;;13.30;;
18596;SDS011;9428;50.950;6.912;2023-04-30T06:34:48;19.42;;;12.90;;
18596;SDS011;9428;50.950;6.912;2023-04-30T06:37:35;20.27;;;13.82;;
18596;SDS011;9428;50.950;6.912;2023-04-30T06:40:22;18.08;;;11.80;;
18596;SDS011;9428;50.950;6.912;2023-04-30T06:43:10;19.80;;;13.43;;
18596;SDS011;9428;50.950;6.912;2023-04-30T06:45:57;17.95;;;12.13;;
18596;SDS011;9428;50.950;6.912;2023-04-30T06:48:45;19.05;;;12.43;;
18596;SDS011;9428;50.950;6.912;2023-04-30T06:51:33;20.95;;;12.82;;
18596;SDS011;9428;50.950;6.912;2023-04-30T06:54:20;19.40;;;12.30;;
18596;SDS011;9428;50.950;6.912;2023-04-30T06:57:08;16.30;;;11.98;;
18596;SDS011;9428;50.950;6.912;2023-04-30T06:59:56;17.42;;;12.52;;
18596;SDS011;9428;50.950;6.912;2023-04-30T07:02:44;18.63;;;13.25;;
18596;SDS011;9428;50.950;6.912;2023-04-30T07:05:37;19.38;;;13.25;;
18596;SDS011;9428;50.950;6.912;2023-04-30T07:08:25;18.00;;;13.32;;
18596;SDS011;9428;50.950;6.912;2023-04-30T07:11:13;20.25;;;14.02;;
18596;SDS011;9428;50.950;6.912;2023-04-30T07:14:00;17.08;;;12.40;;
18596;SDS011;9428;50.950;6.912;2023-04-30T07:16:48;17.42;;;12.80;;
18596;SDS011;9428;50.950;6.912;2023-04-30T07:19:36;18.75;;;12.27;;
18596;SDS011;9428;50.950;6.912;2023-04-30T07:22:24;18.92;;;12.75;;
18596;SDS011;9428;50.950;6.912;2023-04-30T07:25:12;17.63;;;12.07;;
18596;SDS011;9428;50.950;6.912;2023-04-30T07:27:59;19.05;;;12.88;;
18596;SDS011;9428;50.950;6.912;2023-04-30T07:30:46;16.52;;;12.05;;
18596;SDS011;9428;50.950;6.912;2023-04-30T07:33:34;17.67;;;12.30;;
18596;SDS011;9428;50.950;6.912;2023-04-30T07:36:21;18.55;;;12.65;;
18596;SDS011;9428;50.950;6.912;2023-04-30T07:39:10;17.00;;;11.02;;
18596;SDS011;9428;50.950;6.912;2023-04-30T07:41:58;15.52;;;10.43;;
18596;SDS011;9428;50.950;6.912;2023-04-30T07:44:47;14.60;;;10.48;;
18596;SDS011;9428;50.950;6.912;2023-04-30T07:47:34;17.67;;;11.52;;
18596;SDS011;9428;50.950;6.912;2023-04-30T07:50:21;18.35;;;10.82;;
18596;SDS011;9428;50.950;6.912;2023-04-30T07:53:08;17.10;;;11.77;;
18596;SDS011;9428;50.950;6.912;2023-04-30T07:55:57;15.70;;;11.05;;
18596;SDS011;9428;50.950;6.912;2023-04-30T07:58:44;15.35;;;11.25;;
18596;SDS011;9428;50.950;6.912;2023-04-30T08:01:31;16.77;;;11.38;;
18596;SDS011;9428;50.950;6.912;2023-04-30T08:04:19;15.40;;;10.82;;
18596;SDS011;9428;50.950;6.912;2023-04-30T08:07:06;17.52;;;10.50;;
18596;SDS011;9428;50.950;6.912;2023-04-30T08:09:53;14.15;;;10.23;;
18596;SDS011;9428;50.950;6.912;2023-04-30T08:12:42;13.95;;;10.55;;
18596;SDS011;9428;50.950;6.912;2023-04-30T08:15:29;19.88;;;10.50;;
18596;SDS011;9428;50.950;6.912;2023-04-30T08:18:16;17.08;;;10.82;;
18596;SDS011;9428;50.950;6.912;2023-04-30T08:21:04;13.55;;;9.02;;
18596;SDS011;9428;50.950;6.912;2023-04-30T08:23:51;15.38;;;9.93;;
18596;SDS011;9428;50.950;6.912;2023-04-30T08:26:38;14.63;;;8.90;;
18596;SDS011;9428;50.950;6.912;2023-04-30T08:29:27;14.40;;;9.15;;
18596;SDS011;9428;50.950;6.912;2023-04-30T08:32:14;14.75;;;8.52;;
18596;SDS011;9428;50.950;6.912;2023-04-30T08:35:01;11.75;;;7.88;;
18596;SDS011;9428;50.950;6.912;2023-04-30T08:37:49;11.57;;;8.18;;
18596;SDS011;9428;50.950;6.912;2023-04-30T08:40:37;11.43;;;8.18;;
18596;SDS011;9428;50.950;6.912;2023-04-30T08:43:26;10.98;;;6.95;;
18596;SDS011;9428;50.950;6.912;2023-04-30T08:46:15;11.23;;;7.07;;
18596;SDS011;9428;50.950;6.912;2023-04-30T08:49:02;10.57;;;7.35;;
18596;SDS011;9428;50.950;6.912;2023-04-30T08:51:49;7.53;;;6.05;;
18596;SDS011;9428;50.950;6.912;2023-04-30T08:54:37;7.82;;;6.00;;
18596;SDS011;9428;50.950;6.912;2023-04-30T08:57:24;7.65;;;5.28;;
18596;SDS011;9428;50.950;6.912;2023-04-30T09:00:12;8.15;;;5.95;;
18596;SDS011;9428;50.950;6.912;2023-04-30T09:03:01;8.00;;;5.30;;
18596;SDS011;9428;50.950;6.912;2023-04-30T09:05:48;5.97;;;4.53;;
18596;SDS011;9428;50.950;6.912;2023-04-30T09:08:39;7.40;;;4.82;;
18596;SDS011;9428;50.950;6.912;2023-04-30T09:11:28;7.30;;;4.60;;
18596;SDS011;9428;50.950;6.912;2023-04-30T09:14:21;5.63;;;3.60;;
18596;SDS011;9428;50.950;6.912;2023-04-30T09:17:10;6.53;;;3.53;;
18596;SDS011;9428;50.950;6.912;2023-04-30T09:20:09;4.68;;;3.35;;
18596;SDS011;9428;50.950;6.912;2023-04-30T09:23:04;5.38;;;4.07;;
18596;SDS011;9428;50.950;6.912;2023-04-30T09:25:52;6.30;;;4.25;;
18596;SDS011;9428;50.950;6.912;2023-04-30T09:28:52;5.07;;;4.20;;
18596;SDS011;9428;50.950;6.912;2023-04-30T09:31:42;7.43;;;3.97;;
18596;SDS011;9428;50.950;6.912;2023-04-30T09:34:32;9.13;;;3.97;;
18596;SDS011;9428;50.950;6.912;2023-04-30T09:37:22;8.00;;;4.10;;
18596;SDS011;9428;50.950;6.912;2023-04-30T09:40:31;5.82;;;3.85;;
18596;SDS011;9428;50.950;6.912;2023-04-30T09:43:18;4.57;;;3.58;;
18596;SDS011;9428;50.950;6.912;2023-04-30T09:46:05;7.28;;;4.60;;
18596;SDS011;9428;50.950;6.912;2023-04-30T09:48:56;6.93;;;4.32;;
18596;SDS011;9428;50.950;6.912;2023-04-30T09:51:52;5.22;;;3.92;;
18596;SDS011;9428;50.950;6.912;2023-04-30T09:54:41;7.43;;;3.60;;
18596;SDS011;9428;50.950;6.912;2023-04-30T09:57:30;5.90;;;3.90;;
18596;SDS011;9428;50.950;6.912;2023-04-30T10:00:20;7.15;;;4.20;;
18596;SDS011;9428;50.950;6.912;2023-04-30T10:03:09;5.07;;;2.22;;
18596;SDS011;9428;50.950;6.912;2023-04-30T10:05:57;3.25;;;2.45;;
18596;SDS011;9428;50.950;6.912;2023-04-30T10:08:46;4.20;;;3.00;;
18596;SDS011;9428;50.950;6.912;2023-04-30T10:11:36;5.35;;;3.10;;
18596;SDS011;9428;50.950;6.912;2023-04-30T10:14:26;4.57;;;3.00;;
18596;SDS011;9428;50.950;6.912;2023-04-30T10:17:18;3.90;;;2.60;;
18596;SDS011;9428;50.950;6.912;2023-04-30T10:20:09;4.47;;;2.75;;
18596;SDS011;9428;50.950;6.912;2023-04-30T10:22:58;3.30;;;2.25;;
18596;SDS011;9428;50.950;6.912;2023-04-30T10:25:46;2.75;;;2.28;;
18596;SDS011;9428;50.950;6.912;2023-04-30T10:28:35;2.53;;;2.03;;
18596;SDS011;9428;50.950;6.912;2023-04-30T10:31:23;2.15;;;1.95;;
18596;SDS011;9428;50.950;6.912;2023-04-30T10:34:13;2.58;;;1.77;;
18596;SDS011;9428;50.950;6.912;2023-04-30T10:37:06;3.38;;;2.42;;
18596;SDS011;9428;50.950;6.912;2023-04-30T10:40:03;1.45;;;1.33;;
18596;SDS011;9428;50.950;6.912;2023-04-30T10:42:53;1.92;;;1.23;;
18596;SDS011;9428;50.950;6.912;2023-04-30T10:45:42;1.13;;;1.02;;
18596;SDS011;9428;50.950;6.912;2023-04-30T10:48:32;1.42;;;0.90;;
18596;SDS011;9428;50.950;6.912;2023-04-30T10:51:20;2.03;;;1.30;;
18596;SDS011;9428;50.950;6.912;2023-04-30T10:54:07;1.52;;;1.10;;
18596;SDS011;9428;50.950;6.912;2023-04-30T10:57:07;1.38;;;1.13;;
18596;SDS011;9428;50.950;6.912;2023-04-30T11:03:06;1.27;;;1.10;;
18596;SDS011;9428;50.950;6.912;2023-04-30T11:05:53;2.72;;;1.40;;
18596;SDS011;9428;50.950;6.912;2023-04-30T11:08:42;1.90;;;1.42;;
18596;SDS011;9428;50.950;6.912;2023-04-30T11:11:32;1.70;;;1.17;;
18596;SDS011;9428;50.950;6.912;2023-04-30T11:14:19;1.88;;;1.10;;
18596;SDS011;9428;50.950;6.912;2023-04-30T11:17:08;1.63;;;1.15;;
18596;SDS011;9428;50.950;6.912;2023-04-30T11:19:58;2.53;;;1.20;;
18596;SDS011;9428;50.950;6.912;2023-04-30T11:22:46;3.28;;;1.38;;
18596;SDS011;9428;50.950;6.912;2023-04-30T11:25:38;2.92;;;1.75;;
18596;SDS011;9428;50.950;6.912;2023-04-30T11:28:26;1.95;;;1.40;;
18596;SDS011;9428;50.950;6.912;2023-04-30T11:31:15;1.70;;;1.27;;
18596;SDS011;9428;50.950;6.912;2023-04-30T11:34:02;2.70;;;1.52;;
18596;SDS011;9428;50.950;6.912;2023-04-30T11:36:53;3.75;;;1.77;;
18596;SDS011;9428;50.950;6.912;2023-04-30T11:39:44;1.83;;;1.40;;
18596;SDS011;9428;50.950;6.912;2023-04-30T11:42:33;1.55;;;1.13;;
18596;SDS011;9428;50.950;6.912;2023-04-30T11:45:20;2.00;;;1.05;;
18596;SDS011;9428;50.950;6.912;2023-04-30T11:48:11;2.97;;;1.50;;
18596;SDS011;9428;50.950;6.912;2023-04-30T11:51:01;1.52;;;1.25;;
18596;SDS011;9428;50.950;6.912;2023-04-30T11:54:01;2.90;;;1.30;;
18596;SDS011;9428;50.950;6.912;2023-04-30T11:56:48;3.75;;;1.35;;
18596;SDS011;9428;50.950;6.912;2023-04-30T11:59:39;1.05;;;0.95;;
18596;SDS011;9428;50.950;6.912;2023-04-30T12:02:26;1.58;;;1.13;;
18596;SDS011;9428;50.950;6.912;2023-04-30T12:05:14;2.08;;;1.20;;
18596;SDS011;9428;50.950;6.912;2023-04-30T12:08:02;1.85;;;1.20;;
18596;SDS011;9428;50.950;6.912;2023-04-30T12:10:53;1.08;;;0.98;;
18596;SDS011;9428;50.950;6.912;2023-04-30T12:13:48;2.33;;;1.25;;
18596;SDS011;9428;50.950;6.912;2023-04-30T12:16:40;1.95;;;1.05;;
18596;SDS011;9428;50.950;6.912;2023-04-30T12:19:28;1.35;;;0.95;;
18596;SDS011;9428;50.950;6.912;2023-04-30T12:22:16;0.85;;;0.85;;
18596;SDS011;9428;50.950;6.912;2023-04-30T12:25:07;1.17;;;1.00;;
18596;SDS011;9428;50.950;6.912;2023-04-30T12:27:59;1.15;;;1.00;;
18596;SDS011;9428;50.950;6.912;2023-04-30T12:30:47;1.95;;;1.10;;
18596;SDS011;9428;50.950;6.912;2023-04-30T12:33:34;1.63;;;1.10;;
18596;SDS011;9428;50.950;6.912;2023-04-30T12:36:21;1.67;;;1.10;;
18596;SDS011;9428;50.950;6.912;2023-04-30T12:39:15;1.25;;;0.98;;
18596;SDS011;9428;50.950;6.912;2023-04-30T12:42:03;0.85;;;0.85;;
18596;SDS011;9428;50.950;6.912;2023-04-30T12:44:51;0.90;;;0.90;;
18596;SDS011;9428;50.950;6.912;2023-04-30T12:47:39;1.15;;;0.90;;
18596;SDS011;9428;50.950;6.912;2023-04-30T12:50:26;0.90;;;0.90;;
18596;SDS011;9428;50.950;6.912;2023-04-30T12:53:14;0.80;;;0.80;;
18596;SDS011;9428;50.950;6.912;2023-04-30T12:56:07;1.13;;;1.00;;
18596;SDS011;9428;50.950;6.912;2023-04-30T12:58:56;0.60;;;0.60;;
18596;SDS011;9428;50.950;6.912;2023-04-30T13:01:45;0.70;;;0.70;;
18596;SDS011;9428;50.950;6.912;2023-04-30T13:04:32;1.70;;;1.00;;
18596;SDS011;9428;50.950;6.912;2023-04-30T13:07:20;1.10;;;0.70;;
18596;SDS011;9428;50.950;6.912;2023-04-30T13:10:07;1.08;;;0.85;;
18596;SDS011;9428;50.950;6.912;2023-04-30T13:12:55;0.80;;;0.80;;
18596;SDS011;9428;50.950;6.912;2023-04-30T13:15:42;1.70;;;0.77;;
18596;SDS011;9428;50.950;6.912;2023-04-30T13:18:31;1.83;;;1.02;;
18596;SDS011;9428;50.950;6.912;2023-04-30T13:21:18;1.20;;;1.10;;
18596;SDS011;9428;50.950;6.912;2023-04-30T13:24:06;1.13;;;0.93;;
18596;SDS011;9428;50.950;6.912;2023-04-30T13:26:53;1.30;;;1.10;;
18596;SDS011;9428;50.950;6.912;2023-04-30T13:29:42;1.33;;;0.98;;
18596;SDS011;9428;50.950;6.912;2023-04-30T13:32:29;3.03;;;1.00;;
18596;SDS011;9428;50.950;6.912;2023-04-30T13:35:18;3.70;;;1.00;;
18596;SDS011;9428;50.950;6.912;2023-04-30T13:38:05;0.80;;;0.80;;
18596;SDS011;9428;50.950;6.912;2023-04-30T13:40:52;3.65;;;0.82;;
18596;SDS011;9428;50.950;6.912;2023-04-30T13:43:40;1.10;;;0.80;;
18596;SDS011;9428;50.950;6.912;2023-04-30T13:46:29;3.47;;;2.65;;
18596;SDS011;9428;50.950;6.912;2023-04-30T13:49:16;3.05;;;2.10;;
18596;SDS011;9428;50.950;6.912;2023-04-30T13:52:04;9.73;;;3.63;;
18596;SDS011;9428;50.950;6.912;2023-04-30T13:54:52;2.88;;;1.40;;
18596;SDS011;9428;50.950;6.912;2023-04-30T13:57:39;1.38;;;1.08;;
18596;SDS011;9428;50.950;6.912;2023-04-30T14:00:26;1.15;;;0.95;;
18596;SDS011;9428;50.950;6.912;2023-04-30T14:03:13;1.30;;;1.00;;
18596;SDS011;9428;50.950;6.912;2023-04-30T14:06:01;1.27;;;1.05;;
18596;SDS011;9428;50.950;6.912;2023-04-30T14:08:51;0.88;;;0.80;;
18596;SDS011;9428;50.950;6.912;2023-04-30T14:11:38;0.80;;;0.80;;
18596;SDS011;9428;50.950;6.912;2023-04-30T14:14:26;4.25;;;0.88;;
18596;SDS011;9428;50.950;6.912;2023-04-30T14:17:15;1.30;;;1.10;;
18596;SDS011;9428;50.950;6.912;2023-04-30T14:20:02;1.80;;;1.30;;
18596;SDS011;9428;50.950;6.912;2023-04-30T14:22:50;2.78;;;2.05;;
18596;SDS011;9428;50.950;6.912;2023-04-30T14:25:39;2.80;;;1.90;;
18596;SDS011;9428;50.950;6.912;2023-04-30T14:28:27;2.00;;;1.10;;
18596;SDS011;9428;50.950;6.912;2023-04-30T14:31:14;2.03;;;1.55;;
18596;SDS011;9428;50.950;6.912;2023-04-30T14:34:01;0.90;;;0.90;;
18596;SDS011;9428;50.950;6.912;2023-04-30T14:36:49;2.50;;;1.50;;
18596;SDS011;9428;50.950;6.912;2023-04-30T14:39:36;2.10;;;1.13;;
18596;SDS011;9428;50.950;6.912;2023-04-30T14:42:25;2.88;;;1.13;;
18596;SDS011;9428;50.950;6.912;2023-04-30T14:45:12;1.73;;;1.02;;
18596;SDS011;9428;50.950;6.912;2023-04-30T14:47:59;2.55;;;1.58;;
18596;SDS011;9428;50.950;6.912;2023-04-30T14:50:47;3.20;;;1.88;;
18596;SDS011;9428;50.950;6.912;2023-04-30T14:53:34;1.25;;;0.90;;
18596;SDS011;9428;50.950;6.912;2023-04-30T14:56:22;0.85;;;0.85;;
18596;SDS011;9428;50.950;6.912;2023-04-30T14:59:11;2.40;;;0.90;;
18596;SDS011;9428;50.950;6.912;2023-04-30T15:01:59;1.20;;;1.02;;
18596;SDS011;9428;50.950;6.912;2023-04-30T15:04:46;1.35;;;1.00;;
18596;SDS011;9428;50.950;6.912;2023-04-30T15:07:33;1.65;;;0.80;;
18596;SDS011;9428;50.950;6.912;2023-04-30T15:10:24;1.63;;;0.80;;
18596;SDS011;9428;50.950;6.912;2023-04-30T15:13:11;1.40;;;0.90;;
18596;SDS011;9428;50.950;6.912;2023-04-30T15:16:03;1.15;;;0.90;;
18596;SDS011;9428;50.950;6.912;2023-04-30T15:18:51;1.98;;;1.13;;
18596;SDS011;9428;50.950;6.912;2023-04-30T15:21:38;1.65;;;1.20;;
18596;SDS011;9428;50.950;6.912;2023-04-30T15:24:26;1.02;;;0.82;;
18596;SDS011;9428;50.950;6.912;2023-04-30T15:27:14;3.67;;;1.23;;
18596;SDS011;9428;50.950;6.912;2023-04-30T15:30:01;1.08;;;0.95;;
18596;SDS011;9428;50.950;6.912;2023-04-30T15:32:51;2.20;;;1.70;;
18596;SDS011;9428;50.950;6.912;2023-04-30T15:35:38;1.20;;;1.10;;
18596;SDS011;9428;50.950;6.912;2023-04-30T15:38:26;1.00;;;0.90;;
18596;SDS011;9428;50.950;6.912;2023-04-30T15:41:13;1.10;;;1.00;;
18596;SDS011;9428;50.950;6.912;2023-04-30T15:44:00;3.13;;;2.00;;
18596;SDS011;9428;50.950;6.912;2023-04-30T15:46:47;2.13;;;1.50;;
18596;SDS011;9428;50.950;6.912;2023-04-30T15:49:37;2.97;;;1.48;;
18596;SDS011;9428;50.950;6.912;2023-04-30T15:52:24;2.30;;;1.10;;
18596;SDS011;9428;50.950;6.912;2023-04-30T15:55:11;1.95;;;0.98;;
18596;SDS011;9428;50.950;6.912;2023-04-30T15:57:59;1.50;;;1.02;;
18596;SDS011;9428;50.950;6.912;2023-04-30T16:00:46;2.72;;;1.20;;
18596;SDS011;9428;50.950;6.912;2023-04-30T16:03:33;4.72;;;1.30;;
18596;SDS011;9428;50.950;6.912;2023-04-30T16:06:23;1.10;;;1.00;;
18596;SDS011;9428;50.950;6.912;2023-04-30T16:09:10;1.98;;;1.02;;
18596;SDS011;9428;50.950;6.912;2023-04-30T16:12:01;1.88;;;0.93;;
18596;SDS011;9428;50.950;6.912;2023-04-30T16:14:49;2.45;;;1.30;;
18596;SDS011;9428;50.950;6.912;2023-04-30T16:17:36;1.13;;;0.82;;
18596;SDS011;9428;50.950;6.912;2023-04-30T16:20:23;0.95;;;0.88;;
18596;SDS011;9428;50.950;6.912;2023-04-30T16:23:13;2.33;;;1.10;;
18596;SDS011;9428;50.950;6.912;2023-04-30T16:26:00;1.73;;;1.50;;
18596;SDS011;9428;50.950;6.912;2023-04-30T16:28:48;1.05;;;0.95;;
18596;SDS011;9428;50.950;6.912;2023-04-30T16:31:35;1.08;;;0.98;;
18596;SDS011;9428;50.950;6.912;2023-04-30T16:34:23;1.02;;;0.70;;
18596;SDS011;9428;50.950;6.912;2023-04-30T16:37:10;1.13;;;0.90;;
18596;SDS011;9428;50.950;6.912;2023-04-30T16:39:59;1.48;;;1.20;;
18596;SDS011;9428;50.950;6.912;2023-04-30T16:42:47;3.00;;;1.48;;
18596;SDS011;9428;50.950;6.912;2023-04-30T16:45:34;1.42;;;1.02;;
18596;SDS011;9428;50.950;6.912;2023-04-30T16:48:21;1.77;;;0.90;;
18596;SDS011;9428;50.950;6.912;2023-04-30T16:51:09;2.58;;;1.25;;
18596;SDS011;9428;50.950;6.912;2023-04-30T16:53:58;1.55;;;1.13;;
18596;SDS011;9428;50.950;6.912;2023-04-30T16:56:48;3.80;;;1.20;;
18596;SDS011;9428;50.950;6.912;2023-04-30T16:59:36;2.25;;;1.13;;
18596;SDS011;9428;50.950;6.912;2023-04-30T17:02:23;1.58;;;1.10;;